sensor_id;sensor_type;location;lat;lon;timestamp;pressure;altitude;pressure_sealevel;temperature;humidity
75013;BME280;63567;49.956;20.130;2023-09-08T00:00:46;97862.91;;;19.01;65.19
75013;BME280;63567;49.956;20.130;2023-09-08T00:03:12;97857.78;;;18.99;65.11
75013;BME280;63567;49.956;20.130;2023-09-08T00:05:37;97853.69;;;18.97;65.01
75013;BME280;63567;49.956;20.130;2023-09-08T00:08:02;97859.25;;;18.95;65.04
75013;BME280;63567;49.956;20.130;2023-09-08T00:10:28;97853.09;;;18.95;64.99
75013;BME280;63567;49.956;20.130;2023-09-08T00:12:53;97859.50;;;18.94;64.64
75013;BME280;63567;49.956;20.130;2023-09-08T00:15:18;97855.41;;;18.91;64.81
75013;BME280;63567;49.956;20.130;2023-09-08T00:17:43;97842.50;;;18.88;65.06
75013;BME280;63567;49.956;20.130;2023-09-08T00:20:09;97855.03;;;18.87;65.19
75013;BME280;63567;49.956;20.130;2023-09-08T00:22:35;97849.91;;;18.86;65.20
75013;BME280;63567;49.956;20.130;2023-09-08T00:25:01;97858.13;;;18.84;65.25
75013;BME280;63567;49.956;20.130;2023-09-08T00:27:26;97852.78;;;18.84;65.44
75013;BME280;63567;49.956;20.130;2023-09-08T00:29:51;97853.03;;;18.83;65.36
75013;BME280;63567;49.956;20.130;2023-09-08T00:32:16;97858.38;;;18.83;65.50
75013;BME280;63567;49.956;20.130;2023-09-08T00:34:41;97851.38;;;18.82;65.34
75013;BME280;63567;49.956;20.130;2023-09-08T00:37:07;97852.66;;;18.79;65.64
75013;BME280;63567;49.956;20.130;2023-09-08T00:39:35;97850.78;;;18.80;65.61
75013;BME280;63567;49.956;20.130;2023-09-08T00:42:00;97844.84;;;18.78;65.62
75013;BME280;63567;49.956;20.130;2023-09-08T00:44:26;97852.84;;;18.78;65.69
75013;BME280;63567;49.956;20.130;2023-09-08T00:46:51;97848.53;;;18.77;65.78
75013;BME280;63567;49.956;20.130;2023-09-08T00:49:16;97854.91;;;18.76;65.73
75013;BME280;63567;49.956;20.130;2023-09-08T00:51:42;97857.00;;;18.74;65.73
75013;BME280;63567;49.956;20.130;2023-09-08T00:54:07;97846.53;;;18.72;66.08
75013;BME280;63567;49.956;20.130;2023-09-08T00:56:34;97848.41;;;18.72;66.08
75013;BME280;63567;49.956;20.130;2023-09-08T00:58:59;97848.81;;;18.68;66.07
75013;BME280;63567;49.956;20.130;2023-09-08T01:01:25;97847.19;;;18.67;66.00
75013;BME280;63567;49.956;20.130;2023-09-08T01:03:50;97846.00;;;18.63;66.40
75013;BME280;63567;49.956;20.130;2023-09-08T01:06:15;97832.88;;;18.62;66.45
75013;BME280;63567;49.956;20.130;2023-09-08T01:08:42;97837.59;;;18.60;66.50
75013;BME280;63567;49.956;20.130;2023-09-08T01:11:08;97833.53;;;18.57;66.53
75013;BME280;63567;49.956;20.130;2023-09-08T01:13:34;97832.94;;;18.55;66.62
75013;BME280;63567;49.956;20.130;2023-09-08T01:15:59;97835.00;;;18.53;66.65
75013;BME280;63567;49.956;20.130;2023-09-08T01:18:25;97830.13;;;18.50;66.91
75013;BME280;63567;49.956;20.130;2023-09-08T01:21:31;97831.94;;;18.50;66.76
75013;BME280;63567;49.956;20.130;2023-09-08T01:24:29;97830.97;;;18.44;67.03
75013;BME280;63567;49.956;20.130;2023-09-08T01:26:57;97834.06;;;18.41;67.13
75013;BME280;63567;49.956;20.130;2023-09-08T01:29:22;97831.41;;;18.41;67.04
75013;BME280;63567;49.956;20.130;2023-09-08T01:31:51;97830.00;;;18.38;67.07
75013;BME280;63567;49.956;20.130;2023-09-08T01:34:17;97831.84;;;18.38;67.09
75013;BME280;63567;49.956;20.130;2023-09-08T01:36:45;97831.03;;;18.37;66.94
75013;BME280;63567;49.956;20.130;2023-09-08T01:39:10;97837.41;;;18.36;66.94
75013;BME280;63567;49.956;20.130;2023-09-08T01:41:35;97832.31;;;18.35;67.02
75013;BME280;63567;49.956;20.130;2023-09-08T01:44:01;97831.69;;;18.33;67.08
75013;BME280;63567;49.956;20.130;2023-09-08T01:46:32;97833.53;;;18.32;67.15
75013;BME280;63567;49.956;20.130;2023-09-08T01:48:58;97832.13;;;18.30;66.91
75013;BME280;63567;49.956;20.130;2023-09-08T01:51:23;97830.50;;;18.29;66.92
75013;BME280;63567;49.956;20.130;2023-09-08T01:53:48;97830.72;;;18.27;67.40
75013;BME280;63567;49.956;20.130;2023-09-08T01:56:13;97842.19;;;18.27;66.95
75013;BME280;63567;49.956;20.130;2023-09-08T01:58:39;97829.91;;;18.26;66.90
75013;BME280;63567;49.956;20.130;2023-09-08T02:01:04;97830.91;;;18.25;66.87
75013;BME280;63567;49.956;20.130;2023-09-08T02:03:31;97827.44;;;18.25;66.82
75013;BME280;63567;49.956;20.130;2023-09-08T02:05:57;97828.50;;;18.24;66.93
75013;BME280;63567;49.956;20.130;2023-09-08T02:08:22;97837.50;;;18.23;66.88
75013;BME280;63567;49.956;20.130;2023-09-08T02:10:47;97835.06;;;18.21;66.81
75013;BME280;63567;49.956;20.130;2023-09-08T02:13:12;97834.84;;;18.23;66.85
75013;BME280;63567;49.956;20.130;2023-09-08T02:15:37;97838.75;;;18.20;66.85
75013;BME280;63567;49.956;20.130;2023-09-08T02:18:03;97835.50;;;18.18;66.96
75013;BME280;63567;49.956;20.130;2023-09-08T02:20:28;97831.78;;;18.19;66.94
75013;BME280;63567;49.956;20.130;2023-09-08T02:22:54;97816.22;;;18.16;66.93
75013;BME280;63567;49.956;20.130;2023-09-08T02:25:20;97821.56;;;18.16;67.14
75013;BME280;63567;49.956;20.130;2023-09-08T02:27:45;97819.09;;;18.15;67.36
75013;BME280;63567;49.956;20.130;2023-09-08T02:30:11;97820.16;;;18.14;67.57
75013;BME280;63567;49.956;20.130;2023-09-08T02:32:36;97818.50;;;18.13;67.33
75013;BME280;63567;49.956;20.130;2023-09-08T02:35:01;97813.41;;;18.11;67.71
75013;BME280;63567;49.956;20.130;2023-09-08T02:37:27;97809.53;;;18.07;67.76
75013;BME280;63567;49.956;20.130;2023-09-08T02:39:52;97817.34;;;18.09;67.95
75013;BME280;63567;49.956;20.130;2023-09-08T02:42:17;97817.34;;;18.09;68.41
75013;BME280;63567;49.956;20.130;2023-09-08T02:44:42;97814.06;;;18.06;68.74
75013;BME280;63567;49.956;20.130;2023-09-08T02:47:08;97804.41;;;18.05;69.04
75013;BME280;63567;49.956;20.130;2023-09-08T02:49:35;97806.28;;;18.05;69.04
75013;BME280;63567;49.956;20.130;2023-09-08T02:52:00;97801.16;;;18.03;69.07
75013;BME280;63567;49.956;20.130;2023-09-08T02:54:25;97802.19;;;18.02;68.67
75013;BME280;63567;49.956;20.130;2023-09-08T02:56:51;97809.34;;;18.02;68.48
75013;BME280;63567;49.956;20.130;2023-09-08T02:59:16;97804.03;;;18.02;68.36
75013;BME280;63567;49.956;20.130;2023-09-08T03:01:41;97804.03;;;18.02;68.22
75013;BME280;63567;49.956;20.130;2023-09-08T03:04:07;97799.72;;;18.01;68.11
75013;BME280;63567;49.956;20.130;2023-09-08T03:06:32;97796.47;;;17.99;68.02
75013;BME280;63567;49.956;20.130;2023-09-08T03:08:59;97786.47;;;17.94;68.00
75013;BME280;63567;49.956;20.130;2023-09-08T03:11:24;97795.06;;;17.96;67.73
75013;BME280;63567;49.956;20.130;2023-09-08T03:13:49;97793.03;;;17.92;67.91
75013;BME280;63567;49.956;20.130;2023-09-08T03:16:15;97788.72;;;17.91;67.70
75013;BME280;63567;49.956;20.130;2023-09-08T03:18:41;97794.66;;;17.93;67.66
75013;BME280;63567;49.956;20.130;2023-09-08T03:21:06;97794.06;;;17.91;67.61
75013;BME280;63567;49.956;20.130;2023-09-08T03:23:43;97789.78;;;17.90;67.51
75013;BME280;63567;49.956;20.130;2023-09-08T03:26:09;97786.50;;;17.88;67.41
75013;BME280;63567;49.956;20.130;2023-09-08T03:28:36;97792.03;;;17.86;67.57
75013;BME280;63567;49.956;20.130;2023-09-08T03:31:02;97786.31;;;17.82;67.71
75013;BME280;63567;49.956;20.130;2023-09-08T03:33:27;97786.53;;;17.81;67.75
75013;BME280;63567;49.956;20.130;2023-09-08T03:35:53;97789.41;;;17.79;67.43
75013;BME280;63567;49.956;20.130;2023-09-08T03:38:18;97788.59;;;17.79;67.46
75013;BME280;63567;49.956;20.130;2023-09-08T03:40:43;97786.34;;;17.76;67.80
75013;BME280;63567;49.956;20.130;2023-09-08T03:43:09;97784.13;;;17.73;67.76
75013;BME280;63567;49.956;20.130;2023-09-08T03:45:34;97786.16;;;17.71;68.05
75013;BME280;63567;49.956;20.130;2023-09-08T03:47:59;97779.22;;;17.70;68.20
75013;BME280;63567;49.956;20.130;2023-09-08T03:50:25;97778.81;;;17.66;67.96
75013;BME280;63567;49.956;20.130;2023-09-08T03:52:50;97782.50;;;17.65;68.17
75013;BME280;63567;49.956;20.130;2023-09-08T03:55:15;97781.91;;;17.63;68.26
75013;BME280;63567;49.956;20.130;2023-09-08T03:57:42;97767.16;;;17.60;68.25
75013;BME280;63567;49.956;20.130;2023-09-08T04:00:08;97771.09;;;17.58;68.06
75013;BME280;63567;49.956;20.130;2023-09-08T04:02:35;97771.09;;;17.58;68.49
75013;BME280;63567;49.956;20.130;2023-09-08T04:05:00;97773.94;;;17.56;68.39
75013;BME280;63567;49.956;20.130;2023-09-08T04:07:25;97776.25;;;17.53;68.58
75013;BME280;63567;49.956;20.130;2023-09-08T04:09:51;97775.66;;;17.51;68.67
75013;BME280;63567;49.956;20.130;2023-09-08T04:12:16;97775.25;;;17.47;68.49
75013;BME280;63567;49.956;20.130;2023-09-08T04:14:41;97783.25;;;17.47;68.82
75013;BME280;63567;49.956;20.130;2023-09-08T04:17:06;97775.69;;;17.44;68.94
75013;BME280;63567;49.956;20.130;2023-09-08T04:19:32;97783.88;;;17.42;68.63
75013;BME280;63567;49.956;20.130;2023-09-08T04:21:57;97774.47;;;17.40;68.60
75013;BME280;63567;49.956;20.130;2023-09-08T04:24:22;97775.50;;;17.39;68.67
75013;BME280;63567;49.956;20.130;2023-09-08T04:26:47;97781.88;;;17.38;68.66
75013;BME280;63567;49.956;20.130;2023-09-08T04:29:13;97775.94;;;17.36;68.66
75013;BME280;63567;49.956;20.130;2023-09-08T04:31:38;97781.25;;;17.36;68.66
75013;BME280;63567;49.956;20.130;2023-09-08T04:34:03;97782.50;;;17.33;68.78
75013;BME280;63567;49.956;20.130;2023-09-08T04:36:28;97780.84;;;17.32;68.92
75013;BME280;63567;49.956;20.130;2023-09-08T04:38:55;97780.84;;;17.32;68.90
75013;BME280;63567;49.956;20.130;2023-09-08T04:41:20;97779.44;;;17.30;68.85
75013;BME280;63567;49.956;20.130;2023-09-08T04:43:46;97783.97;;;17.29;69.00
75013;BME280;63567;49.956;20.130;2023-09-08T04:46:11;97791.13;;;17.29;68.89
75013;BME280;63567;49.956;20.130;2023-09-08T04:48:37;97789.50;;;17.28;68.92
75013;BME280;63567;49.956;20.130;2023-09-08T04:51:02;97789.69;;;17.26;68.79
75013;BME280;63567;49.956;20.130;2023-09-08T04:53:27;97787.88;;;17.27;68.92
75013;BME280;63567;49.956;20.130;2023-09-08T04:55:53;97784.38;;;17.26;68.56
75013;BME280;63567;49.956;20.130;2023-09-08T04:58:18;97789.69;;;17.26;68.54
75013;BME280;63567;49.956;20.130;2023-09-08T05:00:43;97779.03;;;17.26;68.22
75013;BME280;63567;49.956;20.130;2023-09-08T05:03:08;97786.00;;;17.27;68.09
75013;BME280;63567;49.956;20.130;2023-09-08T05:05:34;97784.16;;;17.28;68.02
75013;BME280;63567;49.956;20.130;2023-09-08T05:07:59;97783.16;;;17.29;67.88
75013;BME280;63567;49.956;20.130;2023-09-08T05:10:24;97782.91;;;17.30;68.07
75013;BME280;63567;49.956;20.130;2023-09-08T05:12:50;97775.97;;;17.29;68.61
75013;BME280;63567;49.956;20.130;2023-09-08T05:15:16;97781.47;;;17.34;69.25
75013;BME280;63567;49.956;20.130;2023-09-08T05:17:42;97779.41;;;17.36;69.20
75013;BME280;63567;49.956;20.130;2023-09-08T05:20:08;97785.13;;;17.40;69.68
75013;BME280;63567;49.956;20.130;2023-09-08T05:22:34;97786.53;;;17.42;69.82
75013;BME280;63567;49.956;20.130;2023-09-08T05:24:59;97789.00;;;17.44;69.65
75013;BME280;63567;49.956;20.130;2023-09-08T05:27:24;97789.38;;;17.48;69.53
75013;BME280;63567;49.956;20.130;2023-09-08T05:29:50;97787.91;;;17.52;69.61
75013;BME280;63567;49.956;20.130;2023-09-08T05:32:15;97789.94;;;17.56;70.29
75013;BME280;63567;49.956;20.130;2023-09-08T05:34:40;97794.06;;;17.59;70.31
75013;BME280;63567;49.956;20.130;2023-09-08T05:37:05;97792.56;;;17.63;71.57
75013;BME280;63567;49.956;20.130;2023-09-08T05:39:31;97790.28;;;17.66;71.40
75013;BME280;63567;49.956;20.130;2023-09-08T05:41:56;97795.78;;;17.72;71.56
75013;BME280;63567;49.956;20.130;2023-09-08T05:44:21;97799.66;;;17.76;71.50
75013;BME280;63567;49.956;20.130;2023-09-08T05:46:46;97798.00;;;17.81;71.66
75013;BME280;63567;49.956;20.130;2023-09-08T05:49:12;97798.19;;;17.86;71.63
75013;BME280;63567;49.956;20.130;2023-09-08T05:51:37;97795.72;;;17.92;71.47
75013;BME280;63567;49.956;20.130;2023-09-08T05:54:02;97794.25;;;17.96;71.31
75013;BME280;63567;49.956;20.130;2023-09-08T05:56:31;97798.31;;;17.98;70.85
75013;BME280;63567;49.956;20.130;2023-09-08T05:58:57;97806.06;;;18.06;70.83
75013;BME280;63567;49.956;20.130;2023-09-08T06:01:22;97801.69;;;18.12;70.54
75013;BME280;63567;49.956;20.130;2023-09-08T06:03:47;97803.50;;;18.18;70.45
75013;BME280;63567;49.956;20.130;2023-09-08T06:06:12;97806.56;;;18.22;70.75
75013;BME280;63567;49.956;20.130;2023-09-08T06:08:38;97805.66;;;18.28;70.90
75013;BME280;63567;49.956;20.130;2023-09-08T06:11:03;97806.66;;;18.34;71.05
75013;BME280;63567;49.956;20.130;2023-09-08T06:13:28;97800.44;;;18.40;70.90
75013;BME280;63567;49.956;20.130;2023-09-08T06:15:54;97797.91;;;18.45;70.63
75013;BME280;63567;49.956;20.130;2023-09-08T06:18:19;97796.22;;;18.51;70.41
75013;BME280;63567;49.956;20.130;2023-09-08T06:20:46;97802.31;;;18.58;71.26
75013;BME280;63567;49.956;20.130;2023-09-08T06:23:11;97801.44;;;18.64;71.78
75013;BME280;63567;49.956;20.130;2023-09-08T06:25:36;97805.09;;;18.70;71.83
75013;BME280;63567;49.956;20.130;2023-09-08T06:28:02;97799.28;;;18.73;71.23
75013;BME280;63567;49.956;20.130;2023-09-08T06:30:27;97806.00;;;18.82;71.34
75013;BME280;63567;49.956;20.130;2023-09-08T06:32:52;97800.81;;;18.87;71.14
75013;BME280;63567;49.956;20.130;2023-09-08T06:35:18;97800.16;;;18.92;70.71
75013;BME280;63567;49.956;20.130;2023-09-08T06:37:43;97803.56;;;18.99;70.85
75013;BME280;63567;49.956;20.130;2023-09-08T06:40:08;97802.47;;;19.06;71.00
75013;BME280;63567;49.956;20.130;2023-09-08T06:42:33;97806.88;;;19.13;71.35
75013;BME280;63567;49.956;20.130;2023-09-08T06:44:59;97804.16;;;19.19;71.46
75013;BME280;63567;49.956;20.130;2023-09-08T06:47:25;97805.31;;;19.23;71.65
75013;BME280;63567;49.956;20.130;2023-09-08T06:49:50;97810.13;;;19.33;71.50
75013;BME280;63567;49.956;20.130;2023-09-08T06:52:17;97806.78;;;19.38;71.74
75013;BME280;63567;49.956;20.130;2023-09-08T06:54:42;97798.09;;;19.42;72.07
75013;BME280;63567;49.956;20.130;2023-09-08T06:57:07;97799.41;;;19.52;71.59
75013;BME280;63567;49.956;20.130;2023-09-08T06:59:32;97808.16;;;19.59;71.66
75013;BME280;63567;49.956;20.130;2023-09-08T07:01:58;97805.59;;;19.64;71.63
75013;BME280;63567;49.956;20.130;2023-09-08T07:04:23;97802.66;;;19.72;71.71
75013;BME280;63567;49.956;20.130;2023-09-08T07:06:48;97807.31;;;19.77;72.09
75013;BME280;63567;49.956;20.130;2023-09-08T07:09:15;97809.88;;;19.83;71.86
75013;BME280;63567;49.956;20.130;2023-09-08T07:11:40;97814.31;;;19.89;71.47
75013;BME280;63567;49.956;20.130;2023-09-08T07:14:06;97807.25;;;19.95;71.48
75013;BME280;63567;49.956;20.130;2023-09-08T07:16:31;97807.16;;;20.02;71.23
75013;BME280;63567;49.956;20.130;2023-09-08T07:18:56;97806.22;;;20.08;71.11
75013;BME280;63567;49.956;20.130;2023-09-08T07:21:21;97807.97;;;20.14;70.41
75013;BME280;63567;49.956;20.130;2023-09-08T07:23:47;97798.00;;;20.21;70.45
75013;BME280;63567;49.956;20.130;2023-09-08T07:26:12;97798.09;;;20.26;70.21
75013;BME280;63567;49.956;20.130;2023-09-08T07:28:37;97799.38;;;20.36;70.71
75013;BME280;63567;49.956;20.130;2023-09-08T07:31:04;97803.00;;;20.41;70.43
75013;BME280;63567;49.956;20.130;2023-09-08T07:33:29;97804.50;;;20.49;69.88
75013;BME280;63567;49.956;20.130;2023-09-08T07:35:55;97801.72;;;20.56;70.34
75013;BME280;63567;49.956;20.130;2023-09-08T07:38:20;97805.72;;;20.65;70.32
75013;BME280;63567;49.956;20.130;2023-09-08T07:40:45;97804.53;;;20.72;70.37
75013;BME280;63567;49.956;20.130;2023-09-08T07:43:10;97805.78;;;20.82;70.05
75013;BME280;63567;49.956;20.130;2023-09-08T07:45:36;97811.38;;;20.92;70.23
75013;BME280;63567;49.956;20.130;2023-09-08T07:48:01;97812.41;;;21.03;70.18
75013;BME280;63567;49.956;20.130;2023-09-08T07:50:28;97804.59;;;21.13;69.75
75013;BME280;63567;49.956;20.130;2023-09-08T07:52:55;97811.78;;;21.24;70.03
75013;BME280;63567;49.956;20.130;2023-09-08T07:55:22;97815.47;;;21.35;70.14
75013;BME280;63567;49.956;20.130;2023-09-08T07:57:54;97820.00;;;21.46;70.09
75013;BME280;63567;49.956;20.130;2023-09-08T08:00:20;97822.66;;;21.58;70.16
75013;BME280;63567;49.956;20.130;2023-09-08T08:02:49;97812.66;;;21.70;70.04
75013;BME280;63567;49.956;20.130;2023-09-08T08:05:15;97815.88;;;21.84;70.07
75013;BME280;63567;49.956;20.130;2023-09-08T08:07:44;97816.63;;;21.97;70.15
75013;BME280;63567;49.956;20.130;2023-09-08T08:10:10;97813.66;;;22.10;69.60
75013;BME280;63567;49.956;20.130;2023-09-08T08:12:36;97811.09;;;22.20;69.57
75013;BME280;63567;49.956;20.130;2023-09-08T08:15:02;97808.69;;;22.35;69.53
75013;BME280;63567;49.956;20.130;2023-09-08T08:17:28;97813.50;;;22.50;68.96
75013;BME280;63567;49.956;20.130;2023-09-08T08:19:54;97811.53;;;22.63;69.25
75013;BME280;63567;49.956;20.130;2023-09-08T08:22:20;97810.94;;;22.77;68.63
75013;BME280;63567;49.956;20.130;2023-09-08T08:24:45;97801.44;;;22.92;68.83
75013;BME280;63567;49.956;20.130;2023-09-08T08:27:11;97809.72;;;23.07;68.90
75013;BME280;63567;49.956;20.130;2023-09-08T08:29:36;97802.13;;;23.21;68.68
75013;BME280;63567;49.956;20.130;2023-09-08T08:32:01;97808.47;;;23.37;68.22
75013;BME280;63567;49.956;20.130;2023-09-08T08:34:27;97798.97;;;23.51;67.91
75013;BME280;63567;49.956;20.130;2023-09-08T08:36:52;97809.88;;;23.67;67.59
75013;BME280;63567;49.956;20.130;2023-09-08T08:39:18;97804.44;;;23.84;67.62
75013;BME280;63567;49.956;20.130;2023-09-08T08:41:43;97806.97;;;24.01;67.94
75013;BME280;63567;49.956;20.130;2023-09-08T08:44:08;97806.63;;;24.19;67.10
75013;BME280;63567;49.956;20.130;2023-09-08T08:46:36;97804.34;;;24.38;67.11
75013;BME280;63567;49.956;20.130;2023-09-08T08:49:03;97801.81;;;24.58;67.46
75013;BME280;63567;49.956;20.130;2023-09-08T08:51:30;97798.16;;;24.80;67.49
75013;BME280;63567;49.956;20.130;2023-09-08T08:53:56;97795.03;;;24.98;66.32
75013;BME280;63567;49.956;20.130;2023-09-08T08:56:22;97793.78;;;25.21;66.44
75013;BME280;63567;49.956;20.130;2023-09-08T08:58:49;97792.53;;;25.45;66.40
75013;BME280;63567;49.956;20.130;2023-09-08T09:01:16;97793.09;;;25.67;66.12
75013;BME280;63567;49.956;20.130;2023-09-08T09:03:44;97786.13;;;25.87;66.72
75013;BME280;63567;49.956;20.130;2023-09-08T09:06:10;97798.31;;;26.10;65.57
75013;BME280;63567;49.956;20.130;2023-09-08T09:08:37;97796.97;;;26.33;65.02
75013;BME280;63567;49.956;20.130;2023-09-08T09:11:02;97801.00;;;26.56;64.59
75013;BME280;63567;49.956;20.130;2023-09-08T09:13:27;97787.16;;;26.78;63.83
75013;BME280;63567;49.956;20.130;2023-09-08T09:15:57;97792.78;;;27.02;62.28
75013;BME280;63567;49.956;20.130;2023-09-08T09:18:23;97795.97;;;27.24;62.02
75013;BME280;63567;49.956;20.130;2023-09-08T09:20:55;97792.88;;;27.47;61.92
75013;BME280;63567;49.956;20.130;2023-09-08T09:23:31;97792.19;;;27.70;62.08
75013;BME280;63567;49.956;20.130;2023-09-08T09:25:57;97792.06;;;27.91;59.46
75013;BME280;63567;49.956;20.130;2023-09-08T09:28:23;97791.13;;;28.11;58.73
75013;BME280;63567;49.956;20.130;2023-09-08T09:30:50;97786.34;;;28.32;57.25
75013;BME280;63567;49.956;20.130;2023-09-08T09:33:16;97789.97;;;28.51;58.39
75013;BME280;63567;49.956;20.130;2023-09-08T09:35:45;97790.31;;;28.74;58.45
75013;BME280;63567;49.956;20.130;2023-09-08T09:38:11;97784.91;;;28.93;57.07
75013;BME280;63567;49.956;20.130;2023-09-08T09:40:37;97781.50;;;29.11;57.94
75013;BME280;63567;49.956;20.130;2023-09-08T09:43:04;97779.31;;;29.32;56.87
75013;BME280;63567;49.956;20.130;2023-09-08T09:45:30;97780.44;;;29.50;56.52
75013;BME280;63567;49.956;20.130;2023-09-08T09:47:56;97771.19;;;29.70;55.63
75013;BME280;63567;49.956;20.130;2023-09-08T09:50:48;97771.91;;;29.95;54.08
75013;BME280;63567;49.956;20.130;2023-09-08T09:53:14;97768.94;;;30.10;55.04
75013;BME280;63567;49.956;20.130;2023-09-08T09:55:41;97770.56;;;30.30;53.87
75013;BME280;63567;49.956;20.130;2023-09-08T09:58:09;97771.81;;;30.52;52.52
75013;BME280;63567;49.956;20.130;2023-09-08T10:00:35;97765.47;;;30.70;50.42
75013;BME280;63567;49.956;20.130;2023-09-08T10:03:03;97766.09;;;30.95;49.70
75013;BME280;63567;49.956;20.130;2023-09-08T10:05:29;97764.25;;;31.18;49.75
75013;BME280;63567;49.956;20.130;2023-09-08T10:07:54;97767.84;;;31.41;49.09
75013;BME280;63567;49.956;20.130;2023-09-08T10:10:21;97772.75;;;31.66;48.96
75013;BME280;63567;49.956;20.130;2023-09-08T10:12:53;97768.41;;;31.88;47.15
75013;BME280;63567;49.956;20.130;2023-09-08T10:15:21;97765.59;;;32.16;47.49
75013;BME280;63567;49.956;20.130;2023-09-08T10:17:52;97766.56;;;32.42;45.58
75013;BME280;63567;49.956;20.130;2023-09-08T10:20:19;97763.50;;;32.66;44.10
75013;BME280;63567;49.956;20.130;2023-09-08T10:22:50;97762.28;;;32.90;43.37
75013;BME280;63567;49.956;20.130;2023-09-08T10:25:20;97768.00;;;33.11;42.65
75013;BME280;63567;49.956;20.130;2023-09-08T10:27:46;97760.50;;;33.34;42.17
75013;BME280;63567;49.956;20.130;2023-09-08T10:30:13;97758.09;;;33.59;41.93
75013;BME280;63567;49.956;20.130;2023-09-08T10:32:39;97757.16;;;33.81;40.18
75013;BME280;63567;49.956;20.130;2023-09-08T10:35:07;97755.69;;;34.01;40.73
75013;BME280;63567;49.956;20.130;2023-09-08T10:37:33;97752.78;;;34.23;40.32
75013;BME280;63567;49.956;20.130;2023-09-08T10:40:24;97751.75;;;34.45;38.82
75013;BME280;63567;49.956;20.130;2023-09-08T10:43:09;97748.34;;;34.66;38.05
75013;BME280;63567;49.956;20.130;2023-09-08T10:45:35;97750.31;;;34.86;38.21
75013;BME280;63567;49.956;20.130;2023-09-08T10:48:00;97749.09;;;35.05;37.88
75013;BME280;63567;49.956;20.130;2023-09-08T10:50:30;97743.97;;;35.24;36.56
75013;BME280;63567;49.956;20.130;2023-09-08T10:53:16;97743.69;;;35.47;35.87
75013;BME280;63567;49.956;20.130;2023-09-08T10:55:49;97745.16;;;35.65;35.39
75013;BME280;63567;49.956;20.130;2023-09-08T10:58:36;97742.72;;;35.85;35.70
75013;BME280;63567;49.956;20.130;2023-09-08T11:01:12;97736.59;;;36.00;34.84
75013;BME280;63567;49.956;20.130;2023-09-08T11:06:04;97741.31;;;36.33;34.75
75013;BME280;63567;49.956;20.130;2023-09-08T11:08:30;97741.44;;;36.49;33.92
75013;BME280;63567;49.956;20.130;2023-09-08T11:10:55;97736.78;;;36.62;33.65
75013;BME280;63567;49.956;20.130;2023-09-08T11:13:21;97745.16;;;36.77;33.80
75013;BME280;63567;49.956;20.130;2023-09-08T11:15:46;97743.66;;;36.92;33.67
75013;BME280;63567;49.956;20.130;2023-09-08T11:18:11;97748.44;;;37.08;32.97
75013;BME280;63567;49.956;20.130;2023-09-08T11:20:37;97739.06;;;37.21;32.73
75013;BME280;63567;49.956;20.130;2023-09-08T11:23:03;97740.63;;;37.34;32.23
75013;BME280;63567;49.956;20.130;2023-09-08T11:25:31;97739.13;;;37.49;32.45
75013;BME280;63567;49.956;20.130;2023-09-08T11:27:57;97739.13;;;37.61;31.44
75013;BME280;63567;49.956;20.130;2023-09-08T11:30:24;97737.81;;;37.71;31.98
75013;BME280;63567;49.956;20.130;2023-09-08T11:32:49;97736.19;;;37.83;31.54
75013;BME280;63567;49.956;20.130;2023-09-08T11:35:16;97736.09;;;37.95;31.71
75013;BME280;63567;49.956;20.130;2023-09-08T11:37:42;97743.53;;;38.07;30.86
75013;BME280;63567;49.956;20.130;2023-09-08T11:40:08;97739.91;;;38.18;30.57
75013;BME280;63567;49.956;20.130;2023-09-08T11:42:35;97736.19;;;38.27;30.02
75013;BME280;63567;49.956;20.130;2023-09-08T11:45:00;97737.16;;;38.34;29.60
75013;BME280;63567;49.956;20.130;2023-09-08T11:47:28;97732.19;;;38.40;29.78
75013;BME280;63567;49.956;20.130;2023-09-08T11:49:54;97732.75;;;38.46;29.56
75013;BME280;63567;49.956;20.130;2023-09-08T11:52:22;97734.47;;;38.50;29.50
75013;BME280;63567;49.956;20.130;2023-09-08T11:54:48;97723.59;;;38.57;28.71
75013;BME280;63567;49.956;20.130;2023-09-08T11:57:13;97726.53;;;38.65;28.97
75013;BME280;63567;49.956;20.130;2023-09-08T11:59:40;97722.44;;;38.74;29.37
75013;BME280;63567;49.956;20.130;2023-09-08T12:02:06;97719.06;;;38.81;29.30
75013;BME280;63567;49.956;20.130;2023-09-08T12:04:35;97718.88;;;38.90;29.32
75013;BME280;63567;49.956;20.130;2023-09-08T12:07:00;97722.19;;;38.95;29.24
75013;BME280;63567;49.956;20.130;2023-09-08T12:09:25;97719.59;;;39.02;29.45
75013;BME280;63567;49.956;20.130;2023-09-08T12:11:51;97724.53;;;39.13;29.43
75013;BME280;63567;49.956;20.130;2023-09-08T12:14:16;97719.19;;;39.20;28.87
75013;BME280;63567;49.956;20.130;2023-09-08T12:16:42;97717.00;;;39.29;28.82
75013;BME280;63567;49.956;20.130;2023-09-08T12:19:08;97713.72;;;39.39;29.27
75013;BME280;63567;49.956;20.130;2023-09-08T12:21:58;97705.66;;;39.50;28.69
75013;BME280;63567;49.956;20.130;2023-09-08T12:24:55;97705.88;;;39.61;28.57
75013;BME280;63567;49.956;20.130;2023-09-08T12:27:24;97709.19;;;39.70;28.24
75013;BME280;63567;49.956;20.130;2023-09-08T12:29:58;97698.38;;;39.81;27.93
75013;BME280;63567;49.956;20.130;2023-09-08T12:32:25;97699.34;;;39.89;27.35
75013;BME280;63567;49.956;20.130;2023-09-08T12:34:51;97695.16;;;39.98;27.87
75013;BME280;63567;49.956;20.130;2023-09-08T12:37:24;97695.44;;;40.13;27.82
75013;BME280;63567;49.956;20.130;2023-09-08T12:39:50;97696.06;;;40.25;27.28
75013;BME280;63567;49.956;20.130;2023-09-08T12:42:15;97697.06;;;40.37;27.14
75013;BME280;63567;49.956;20.130;2023-09-08T12:44:40;97691.28;;;40.45;26.91
75013;BME280;63567;49.956;20.130;2023-09-08T12:47:06;97682.38;;;40.56;26.59
75013;BME280;63567;49.956;20.130;2023-09-08T12:49:31;97681.28;;;40.64;26.18